createdAt,value
2022-12-16T00:00:44.923Z,736.7
2022-12-16T00:01:47.774Z,736.5
2022-12-16T00:02:50.641Z,736.5
2022-12-16T00:04:59.119Z,737.2
2022-12-16T00:06:01.337Z,737
2022-12-16T00:07:03.920Z,737.2
2022-12-16T00:08:06.126Z,737.1
2022-12-16T00:09:08.697Z,737.4
2022-12-16T00:10:11.174Z,737.3
2022-12-16T00:11:13.656Z,737.3
2022-12-16T00:12:16.155Z,737.2
2022-12-16T00:13:18.340Z,737.2
2022-12-16T00:14:20.868Z,737.1
2022-12-16T00:15:23.077Z,737.6
2022-12-16T00:16:25.717Z,737.7
2022-12-16T00:17:28.252Z,737.5
2022-12-16T00:18:30.745Z,737.4
2022-12-16T00:19:32.401Z,737.2
2022-12-16T00:20:34.604Z,737.4
2022-12-16T00:21:36.814Z,737.2
2022-12-16T00:22:39.035Z,737.2
2022-12-16T00:23:41.216Z,737.3
2022-12-16T00:24:43.415Z,737
2022-12-16T00:25:45.896Z,737.2
2022-12-16T00:26:48.097Z,737.4
2022-12-16T00:28:56.604Z,737.2
2022-12-16T00:29:59.131Z,737.3
2022-12-16T00:31:01.614Z,737.1
2022-12-16T00:32:04.750Z,737.3
2022-12-16T00:33:07.050Z,737.3
2022-12-16T00:34:09.924Z,737.7
2022-12-16T00:35:12.137Z,737.7
2022-12-16T00:36:14.341Z,737.4
2022-12-16T00:37:16.547Z,737.5
2022-12-16T00:38:18.796Z,737.4
2022-12-16T00:39:21.269Z,737.6
2022-12-16T00:40:23.757Z,737.4
2022-12-16T00:41:26.260Z,737.8
2022-12-16T00:42:28.194Z,737.9
2022-12-16T00:43:32.864Z,737.8
2022-12-16T00:44:35.787Z,737.9
2022-12-16T00:45:38.635Z,737.5
2022-12-16T00:46:40.870Z,737.3
2022-12-16T00:48:48.391Z,737.3
2022-12-16T00:49:50.616Z,737.3
2022-12-16T00:51:59.358Z,737.2
2022-12-16T00:53:01.569Z,736.9
2022-12-16T00:54:04.075Z,737
2022-12-16T00:55:06.561Z,737.2
2022-12-16T00:56:09.501Z,736.7
2022-12-16T00:57:11.701Z,736.9
2022-12-16T00:58:13.627Z,736.7
2022-12-16T00:59:16.106Z,736.4
2022-12-16T01:00:17.772Z,736.1
2022-12-16T01:01:21.318Z,735.9
2022-12-16T01:02:24.772Z,735.9
2022-12-16T01:03:27.791Z,735.7
2022-12-16T01:04:30.470Z,735.2
2022-12-16T01:05:32.946Z,735.1
2022-12-16T01:06:35.172Z,734.7
2022-12-16T01:07:37.388Z,734.7
2022-12-16T01:08:39.316Z,734.5
2022-12-16T01:09:41.548Z,734.5
2022-12-16T01:10:43.752Z,734.1
2022-12-16T01:11:46.230Z,733.3
2022-12-16T01:12:47.900Z,733.6
2022-12-16T01:13:50.375Z,733.2
2022-12-16T01:14:55.898Z,733.2
2022-12-16T01:15:58.769Z,733.1
2022-12-16T01:17:01.359Z,733.4
2022-12-16T01:18:03.561Z,733.3
2022-12-16T01:19:05.753Z,733.5
2022-12-16T01:20:08.274Z,733.2
2022-12-16T01:21:10.763Z,733.1
2022-12-16T01:22:12.991Z,733.2
2022-12-16T01:23:15.237Z,733
2022-12-16T01:24:17.799Z,733
2022-12-16T01:25:20.314Z,733
2022-12-16T01:26:22.799Z,733.1
2022-12-16T01:27:25.004Z,733.2
2022-12-16T01:28:27.484Z,732.8
2022-12-16T01:29:29.679Z,733.3
2022-12-16T01:30:32.159Z,732.6
2022-12-16T01:31:35.082Z,732.4
2022-12-16T01:32:37.377Z,732.1
2022-12-16T01:33:39.555Z,732.2
2022-12-16T01:34:42.035Z,732.4
2022-12-16T01:36:49.550Z,732.5
2022-12-16T01:38:58.864Z,731.9
2022-12-16T01:40:01.363Z,731.8
2022-12-16T01:41:03.596Z,731.7
2022-12-16T01:42:05.502Z,732.4
2022-12-16T01:43:08.456Z,732.1
2022-12-16T01:44:11.036Z,731.8
2022-12-16T01:45:13.232Z,731.8
2022-12-16T01:46:15.552Z,732.2
2022-12-16T01:47:17.790Z,731.7
2022-12-16T01:48:20.080Z,732.1
2022-12-16T01:49:22.488Z,731.7
2022-12-16T01:50:24.701Z,731.7
2022-12-16T01:51:26.897Z,731.6
2022-12-16T01:52:29.418Z,731.8
2022-12-16T01:53:34.405Z,732.3
2022-12-16T01:54:36.860Z,732.3
2022-12-16T01:55:39.327Z,732.6
2022-12-16T01:56:41.624Z,732.8
2022-12-16T01:57:43.825Z,732.7
2022-12-16T01:58:46.052Z,732.5
2022-12-16T01:59:48.536Z,732.9
2022-12-16T02:00:52.093Z,733.3
2022-12-16T02:02:00.490Z,733.3
2022-12-16T02:03:03.324Z,732.6
2022-12-16T02:04:05.611Z,732.5
2022-12-16T02:05:07.862Z,732.4
2022-12-16T02:06:10.658Z,732.7
2022-12-16T02:07:13.137Z,732.6
2022-12-16T02:08:15.661Z,732.6
2022-12-16T02:09:17.868Z,732.1
2022-12-16T02:10:20.442Z,732.4
2022-12-16T02:11:22.934Z,732.1
2022-12-16T02:12:25.444Z,732.4
2022-12-16T02:13:27.686Z,732.4
2022-12-16T02:14:30.162Z,732.3
2022-12-16T02:15:32.380Z,732.5
2022-12-16T02:16:34.985Z,732.8
2022-12-16T02:17:37.224Z,732.4
2022-12-16T02:18:39.705Z,732.2
2022-12-16T02:19:42.273Z,732.1
2022-12-16T02:20:44.749Z,732.1
2022-12-16T02:21:47.228Z,732.1
2022-12-16T02:22:49.739Z,732.5
2022-12-16T02:23:55.375Z,731.8
2022-12-16T02:24:57.592Z,731.3
2022-12-16T02:25:59.791Z,731.2
2022-12-16T02:27:01.989Z,730.6
2022-12-16T02:28:03.913Z,730.9
2022-12-16T02:29:06.118Z,730.4
2022-12-16T02:30:09.399Z,730.4
2022-12-16T02:31:12.407Z,730.2
2022-12-16T02:32:14.633Z,730.5
2022-12-16T02:33:16.814Z,730
2022-12-16T02:34:19.292Z,730.1
2022-12-16T02:35:21.609Z,729.5
2022-12-16T02:36:24.088Z,729.3
2022-12-16T02:37:26.565Z,729.1
2022-12-16T02:38:28.763Z,729
2022-12-16T02:39:31.003Z,729.3
2022-12-16T02:40:33.477Z,729.5
2022-12-16T02:41:35.675Z,729.7
2022-12-16T02:42:38.149Z,729.7
2022-12-16T02:43:40.663Z,729.6
2022-12-16T02:44:43.145Z,729.9
2022-12-16T02:45:45.626Z,729.9
2022-12-16T02:46:48.126Z,729.1
2022-12-16T02:47:50.603Z,729.2
2022-12-16T02:48:52.796Z,728.8
2022-12-16T02:49:55.289Z,728.8
2022-12-16T02:50:57.804Z,728.3
2022-12-16T02:52:00.006Z,728.6
2022-12-16T02:53:02.215Z,728.1
2022-12-16T02:54:04.419Z,728.3
2022-12-16T02:55:06.971Z,728.3
2022-12-16T02:56:09.441Z,727.9
2022-12-16T02:57:11.921Z,728.1
2022-12-16T02:58:14.124Z,727.8
2022-12-16T02:59:16.084Z,727.5
2022-12-16T03:00:18.288Z,727.4
2022-12-16T03:01:21.548Z,727.5
2022-12-16T03:02:25.381Z,727.7
2022-12-16T03:03:28.368Z,727.6
2022-12-16T03:04:30.895Z,727.2
2022-12-16T03:05:33.411Z,727.5
2022-12-16T03:06:35.938Z,727.1
2022-12-16T03:07:38.152Z,727.1
2022-12-16T03:08:40.652Z,727.2
2022-12-16T03:09:43.155Z,727.2
2022-12-16T03:10:45.680Z,726.9
2022-12-16T03:11:48.150Z,726.8
2022-12-16T03:12:50.636Z,726.9
2022-12-16T03:13:52.539Z,727.1
2022-12-16T03:14:55.051Z,727.4
2022-12-16T03:15:57.264Z,727.4
2022-12-16T03:17:00.294Z,727.4
2022-12-16T03:18:02.812Z,727.6
2022-12-16T03:19:04.997Z,727.4
2022-12-16T03:20:07.483Z,727.1
2022-12-16T03:21:09.692Z,727.3
2022-12-16T03:22:12.228Z,727.6
2022-12-16T03:23:13.865Z,727.4
2022-12-16T03:24:16.146Z,727.2
2022-12-16T03:25:18.635Z,727.8
2022-12-16T03:26:20.886Z,727.8
2022-12-16T03:27:23.372Z,728
2022-12-16T03:28:25.575Z,728
2022-12-16T03:29:28.056Z,728.2
2022-12-16T03:30:30.597Z,727.9
2022-12-16T03:31:32.562Z,727.3
2022-12-16T03:32:34.760Z,727.4
2022-12-16T03:33:37.418Z,727.3
2022-12-16T03:34:39.890Z,726.7
2022-12-16T03:35:41.824Z,727.2
2022-12-16T03:36:44.301Z,726.7
2022-12-16T03:37:46.557Z,726.7
2022-12-16T03:38:49.042Z,726.9
2022-12-16T03:39:51.527Z,726.5
2022-12-16T03:41:59.059Z,726.4
2022-12-16T03:43:01.574Z,726.1
2022-12-16T03:44:04.048Z,726
2022-12-16T03:45:06.533Z,726.4
2022-12-16T03:46:09.514Z,725.8
2022-12-16T03:47:12.058Z,726
2022-12-16T03:48:14.259Z,725.7
2022-12-16T03:49:16.756Z,726
2022-12-16T03:50:19.231Z,725.6
2022-12-16T03:51:21.731Z,725.7
2022-12-16T03:52:24.211Z,725.1
2022-12-16T03:53:26.454Z,725.3
2022-12-16T03:54:28.940Z,725.4
2022-12-16T03:55:31.415Z,725
2022-12-16T03:56:33.612Z,725.2
2022-12-16T03:57:36.192Z,724.9
2022-12-16T03:58:38.669Z,725
2022-12-16T03:59:40.867Z,724.6
2022-12-16T04:00:42.817Z,724.5
2022-12-16T04:01:45.956Z,724.8
2022-12-16T04:02:49.406Z,724.9
2022-12-16T04:03:52.243Z,725.1
2022-12-16T04:04:54.468Z,724.7
2022-12-16T04:05:57.091Z,724.6
2022-12-16T04:06:59.573Z,724.7
2022-12-16T04:08:04.298Z,723.8
2022-12-16T04:09:06.831Z,723.7
2022-12-16T04:10:09.312Z,723.2
2022-12-16T04:11:11.780Z,723.1
2022-12-16T04:12:14.271Z,722.8
2022-12-16T04:13:16.272Z,722.9
2022-12-16T04:14:18.464Z,722.3
2022-12-16T04:15:20.122Z,722.1
2022-12-16T04:16:23.067Z,721.9
2022-12-16T04:17:25.634Z,721.9
2022-12-16T04:18:28.108Z,721.6
2022-12-16T04:19:30.330Z,722.1
2022-12-16T04:20:32.807Z,721.3
2022-12-16T04:21:35.023Z,721.4
2022-12-16T04:22:37.511Z,722
2022-12-16T04:23:39.723Z,721.7
2022-12-16T04:24:41.967Z,722.1
2022-12-16T04:25:44.248Z,721.8
2022-12-16T04:26:46.744Z,721.6
2022-12-16T04:27:49.306Z,721.8
2022-12-16T04:28:51.552Z,721.9
2022-12-16T04:29:54.030Z,721.5
2022-12-16T04:30:57.984Z,720.8
2022-12-16T04:31:59.664Z,721.2
2022-12-16T04:33:02.187Z,720.8
2022-12-16T04:34:04.392Z,721
2022-12-16T04:35:06.660Z,720.4
2022-12-16T04:36:09.144Z,720.4
2022-12-16T04:37:11.618Z,720.2
2022-12-16T04:38:14.119Z,720.2
2022-12-16T04:39:16.069Z,719.7
2022-12-16T04:40:18.590Z,719.7
2022-12-16T04:41:22.080Z,719.8
2022-12-16T04:42:25.179Z,719.6
2022-12-16T04:43:28.322Z,719.4
2022-12-16T04:44:31.252Z,719.5
2022-12-16T04:45:33.751Z,718.9
2022-12-16T04:46:36.459Z,718.5
2022-12-16T04:47:38.750Z,718.7
2022-12-16T04:48:40.992Z,718.2
2022-12-16T04:49:42.906Z,718.4
2022-12-16T04:50:45.393Z,718.2
2022-12-16T04:51:47.891Z,718.3
2022-12-16T04:52:49.834Z,718.1
2022-12-16T04:53:52.327Z,718.2
2022-12-16T04:54:54.524Z,717.9
2022-12-16T04:57:02.100Z,717.4
2022-12-16T04:58:04.323Z,717.2
2022-12-16T04:59:06.813Z,716.7
2022-12-16T05:00:09.083Z,716.8
2022-12-16T05:01:12.004Z,716.4
2022-12-16T05:02:15.502Z,716.1
2022-12-16T05:03:18.377Z,715.9
2022-12-16T05:04:20.933Z,716.3
2022-12-16T05:05:23.453Z,716.1
2022-12-16T05:06:25.677Z,716.2
2022-12-16T05:07:28.117Z,716.3
2022-12-16T05:08:31.462Z,716.1
2022-12-16T05:09:33.936Z,715.8
2022-12-16T05:10:36.153Z,715.8
2022-12-16T05:11:38.628Z,715.8
2022-12-16T05:12:40.881Z,715.5
2022-12-16T05:13:43.369Z,715.5
2022-12-16T05:14:45.835Z,715
2022-12-16T05:15:48.702Z,714.7
2022-12-16T05:16:51.215Z,714.9
2022-12-16T05:17:53.698Z,715
2022-12-16T05:18:55.899Z,714.6
2022-12-16T05:19:58.131Z,714.6
2022-12-16T05:21:00.632Z,714.9
2022-12-16T05:22:03.141Z,714.5
2022-12-16T05:23:05.613Z,714.9
2022-12-16T05:24:07.815Z,714.8
2022-12-16T05:25:10.019Z,714.8
2022-12-16T05:26:11.935Z,715.1
2022-12-16T05:27:14.124Z,715.1
2022-12-16T05:28:16.635Z,715.2
2022-12-16T05:29:18.293Z,715.2
2022-12-16T05:30:20.767Z,714.4
2022-12-16T05:31:23.545Z,714.3
2022-12-16T05:32:26.064Z,714.3
2022-12-16T05:33:28.543Z,714.1
2022-12-16T05:34:30.739Z,714.1
2022-12-16T05:35:32.972Z,713.8
2022-12-16T05:36:35.454Z,714.2
2022-12-16T05:37:37.937Z,714.3
2022-12-16T05:38:39.852Z,714.4
2022-12-16T05:39:42.063Z,714.2
2022-12-16T05:40:44.545Z,714.5
2022-12-16T05:41:47.019Z,713.7
2022-12-16T05:42:49.201Z,713.7
2022-12-16T05:43:51.489Z,713.7
2022-12-16T05:44:53.966Z,713.3
2022-12-16T05:45:56.835Z,713.3
2022-12-16T05:47:00.409Z,713.2
2022-12-16T05:48:02.709Z,713.3
2022-12-16T05:49:04.334Z,712.3
2022-12-16T05:50:05.971Z,712.1
2022-12-16T05:51:08.488Z,712.3
2022-12-16T05:52:10.690Z,711.8
2022-12-16T05:53:12.866Z,712
2022-12-16T05:54:15.093Z,711.7
2022-12-16T05:55:17.730Z,711.2
2022-12-16T05:56:19.700Z,711.5
2022-12-16T05:57:21.905Z,710.9
2022-12-16T05:58:24.386Z,710.7
2022-12-16T05:59:26.908Z,710.1
2022-12-16T06:00:28.837Z,710.2
2022-12-16T06:01:32.121Z,710
2022-12-16T06:02:35.529Z,710.4
2022-12-16T06:03:40.774Z,710.2
2022-12-16T06:04:42.779Z,710
2022-12-16T06:05:45.269Z,710.2
2022-12-16T06:06:47.771Z,710.3
2022-12-16T06:07:49.973Z,710.2
2022-12-16T06:08:51.899Z,710.4
2022-12-16T06:10:59.085Z,710.2
2022-12-16T06:12:01.564Z,710
2022-12-16T06:13:03.745Z,709.2
2022-12-16T06:14:06.236Z,709
2022-12-16T06:15:08.758Z,708.8
2022-12-16T06:16:11.580Z,708.8
2022-12-16T06:17:14.168Z,708.7
2022-12-16T06:18:16.713Z,708.7
2022-12-16T06:19:19.194Z,708.4
2022-12-16T06:20:21.415Z,708.8
2022-12-16T06:21:23.917Z,708.9
2022-12-16T06:22:26.138Z,708.4
2022-12-16T06:23:28.616Z,708.8
2022-12-16T06:24:31.178Z,708.4
2022-12-16T06:25:33.650Z,708.1
2022-12-16T06:26:36.150Z,707.7
2022-12-16T06:27:38.346Z,707.8
2022-12-16T06:29:45.840Z,707.7
2022-12-16T06:30:48.485Z,706.9
2022-12-16T06:31:50.582Z,706.9
2022-12-16T06:32:53.139Z,706.8
2022-12-16T06:33:57.214Z,706.6
2022-12-16T06:34:59.416Z,706.6
2022-12-16T06:36:01.895Z,706.1
2022-12-16T06:37:04.120Z,705.5
2022-12-16T06:38:06.641Z,705.7
2022-12-16T06:39:09.125Z,705.3
2022-12-16T06:40:11.602Z,705.1
2022-12-16T06:41:14.107Z,705.4
2022-12-16T06:42:16.604Z,705.4
2022-12-16T06:43:18.814Z,705.3
2022-12-16T06:44:21.296Z,705.4
2022-12-16T06:45:23.595Z,705.2
2022-12-16T06:46:26.351Z,705.2
2022-12-16T06:47:28.595Z,705.4
2022-12-16T06:48:31.073Z,705
2022-12-16T06:49:33.595Z,705.1
2022-12-16T06:50:35.790Z,704.5
2022-12-16T06:51:38.280Z,704.6
2022-12-16T06:52:40.502Z,704.3
2022-12-16T06:53:43.095Z,703.9
2022-12-16T06:54:45.580Z,703.9
2022-12-16T06:55:47.511Z,703.5
2022-12-16T06:56:49.708Z,703.5
2022-12-16T06:57:51.909Z,703.2
2022-12-16T06:58:54.118Z,702.9
2022-12-16T06:59:56.622Z,702.8
2022-12-16T07:00:59.179Z,702.6
2022-12-16T07:02:02.724Z,703
2022-12-16T07:03:07.078Z,702.4
2022-12-16T07:04:09.609Z,702.4
2022-12-16T07:05:12.128Z,702.1
2022-12-16T07:06:14.052Z,701.7
2022-12-16T07:07:16.525Z,701.6
2022-12-16T07:08:19.007Z,701.1
2022-12-16T07:09:21.502Z,701.2
2022-12-16T07:10:23.983Z,701.1
2022-12-16T07:11:25.917Z,701.2
2022-12-16T07:12:28.595Z,700.7
2022-12-16T07:13:32.949Z,700.6
2022-12-16T07:14:35.685Z,700.1
2022-12-16T07:15:38.188Z,700.2
2022-12-16T07:16:40.866Z,699.4
2022-12-16T07:17:43.136Z,699.7
2022-12-16T07:18:45.612Z,699.5
2022-12-16T07:19:48.127Z,699.5
2022-12-16T07:20:51.308Z,699.4
2022-12-16T07:21:57.619Z,698.9
2022-12-16T07:24:04.803Z,699.3
2022-12-16T07:25:07.060Z,699.1
2022-12-16T07:26:09.554Z,699.3
2022-12-16T07:27:11.510Z,699.2
2022-12-16T07:29:18.984Z,698.8
2022-12-16T07:30:21.198Z,698.7
2022-12-16T07:31:23.813Z,698.5
2022-12-16T07:32:26.013Z,698
2022-12-16T07:33:28.399Z,697.9
2022-12-16T07:34:37.181Z,697.4
2022-12-16T07:35:39.713Z,697.3
2022-12-16T07:36:42.374Z,697.4
2022-12-16T07:37:44.609Z,696.9
2022-12-16T07:38:46.828Z,696.6
2022-12-16T07:40:54.353Z,696.5
2022-12-16T07:41:57.578Z,696.3
2022-12-16T07:43:00.067Z,696.2
2022-12-16T07:44:02.576Z,696.1
2022-12-16T07:45:04.520Z,696.4
2022-12-16T07:46:07.473Z,696.1
2022-12-16T07:47:10.370Z,695.5
2022-12-16T07:48:12.621Z,695.5
2022-12-16T07:49:15.145Z,695.7
2022-12-16T07:50:16.548Z,695
2022-12-16T07:51:18.453Z,695.4
2022-12-16T07:52:21.111Z,695
2022-12-16T07:54:29.769Z,694.6
2022-12-16T07:55:32.327Z,694.8
2022-12-16T07:56:34.836Z,694.1
2022-12-16T07:57:37.052Z,694.1
2022-12-16T07:58:39.571Z,693.5
2022-12-16T07:59:41.774Z,693.8
2022-12-16T08:00:44.263Z,693.8
2022-12-16T08:01:47.318Z,693.7
2022-12-16T08:02:51.676Z,693.5
2022-12-16T08:03:54.893Z,693.2
2022-12-16T08:04:58.453Z,693.4
2022-12-16T08:06:00.951Z,693.1
2022-12-16T08:07:02.855Z,692.9
2022-12-16T08:08:05.312Z,692.9
2022-12-16T08:09:07.800Z,692.9
2022-12-16T08:10:10.087Z,692.8
2022-12-16T08:11:12.321Z,692.8
2022-12-16T08:12:14.763Z,692.9
2022-12-16T08:14:22.769Z,692.5
2022-12-16T08:15:25.257Z,692.3
2022-12-16T08:16:27.874Z,692.4
2022-12-16T08:17:29.570Z,691.9
2022-12-16T08:18:31.782Z,691.2
2022-12-16T08:19:33.987Z,691.4
2022-12-16T08:20:36.295Z,691.3
2022-12-16T08:21:38.802Z,691.3
2022-12-16T08:22:41.019Z,691.1
2022-12-16T08:23:43.575Z,691.1
2022-12-16T08:25:51.223Z,690.8
2022-12-16T08:26:56.392Z,691.1
2022-12-16T08:27:58.624Z,690.9
2022-12-16T08:30:05.822Z,690.5
2022-12-16T08:31:09.651Z,690.5
2022-12-16T08:32:11.346Z,690.9
2022-12-16T08:34:18.824Z,690.4
2022-12-16T08:35:21.355Z,689.7
2022-12-16T08:36:23.655Z,689.4
2022-12-16T08:37:26.151Z,689.7
2022-12-16T08:38:28.642Z,689.2
2022-12-16T08:39:30.629Z,689.1
2022-12-16T08:41:38.096Z,689.1
2022-12-16T08:42:40.588Z,688.9
2022-12-16T08:43:42.821Z,688.8
2022-12-16T08:44:45.492Z,688.5
2022-12-16T08:45:48.247Z,688.7
2022-12-16T08:46:50.234Z,688.5
2022-12-16T08:47:52.971Z,688.2
2022-12-16T08:48:57.365Z,688
2022-12-16T08:51:04.830Z,687.8
2022-12-16T08:52:07.383Z,687.6
2022-12-16T08:53:09.859Z,687.9
2022-12-16T08:54:11.805Z,687.8
2022-12-16T08:55:14.370Z,687.7
2022-12-16T08:56:16.330Z,687.5
2022-12-16T08:57:18.879Z,687.1
2022-12-16T08:58:21.394Z,687.3
2022-12-16T08:59:23.595Z,687.2
2022-12-16T09:00:26.036Z,687.2
2022-12-16T09:01:29.140Z,686.8
2022-12-16T09:02:33.134Z,686.9
2022-12-16T09:03:39.098Z,686.6
2022-12-16T09:04:41.754Z,686.6
2022-12-16T09:05:43.977Z,686.8
2022-12-16T09:06:46.479Z,686.6
2022-12-16T09:07:49.033Z,686.5
2022-12-16T09:08:51.383Z,686.4
2022-12-16T09:09:53.595Z,686
2022-12-16T09:10:56.790Z,685.9
2022-12-16T09:11:59.284Z,685.8
2022-12-16T09:13:01.760Z,685.8
2022-12-16T09:14:03.972Z,685.1
2022-12-16T09:15:06.518Z,685.4
2022-12-16T09:17:16.804Z,685.2
2022-12-16T09:18:19.071Z,684.7
2022-12-16T09:19:21.569Z,684.8
2022-12-16T09:20:23.703Z,684.6
2022-12-16T09:22:31.201Z,684.3
2022-12-16T09:23:36.223Z,683.7
2022-12-16T09:24:38.828Z,684
2022-12-16T09:25:40.489Z,683.6
2022-12-16T09:26:43.859Z,683.3
2022-12-16T09:27:46.405Z,683.5
2022-12-16T09:28:48.928Z,683.2
2022-12-16T09:29:51.151Z,683.7
2022-12-16T09:31:59.467Z,682.8
2022-12-16T09:33:01.140Z,683.1
2022-12-16T09:34:02.797Z,682.4
2022-12-16T09:36:09.712Z,682.2
2022-12-16T09:37:12.210Z,682.1
2022-12-16T09:38:14.732Z,681.9
2022-12-16T09:39:17.277Z,681.8
2022-12-16T09:40:19.220Z,682
2022-12-16T09:41:21.710Z,681.4
2022-12-16T09:42:24.001Z,681.5
2022-12-16T09:43:26.610Z,681.5
2022-12-16T09:44:29.311Z,681.5
2022-12-16T09:45:31.805Z,681.4
2022-12-16T09:46:34.261Z,681.1
2022-12-16T09:47:36.846Z,680.9
2022-12-16T09:48:38.761Z,681
2022-12-16T09:49:40.699Z,681
2022-12-16T09:50:43.199Z,681
2022-12-16T09:51:45.421Z,680.3
2022-12-16T09:52:47.922Z,680.8
2022-12-16T09:53:50.033Z,680.7
2022-12-16T09:54:54.943Z,680.4
2022-12-16T09:55:58.010Z,680.1
2022-12-16T09:57:00.493Z,680.4
2022-12-16T09:58:02.783Z,680.4
2022-12-16T09:59:05.283Z,680.1
2022-12-16T10:00:07.778Z,680.2
2022-12-16T10:01:10.447Z,679.9
2022-12-16T10:02:14.215Z,679.7
2022-12-16T10:03:18.121Z,679.4
2022-12-16T10:04:21.148Z,679.2
2022-12-16T10:05:23.672Z,679.5
2022-12-16T10:06:26.274Z,679.5
2022-12-16T10:07:28.239Z,679.9
2022-12-16T10:08:30.200Z,679.2
2022-12-16T10:09:32.408Z,679.3
2022-12-16T10:10:34.944Z,679.7
2022-12-16T10:11:37.420Z,679.1
2022-12-16T10:12:39.639Z,679.4
2022-12-16T10:13:42.265Z,679.3
2022-12-16T10:14:44.758Z,679.1
2022-12-16T10:15:47.667Z,679.3
2022-12-16T10:16:50.207Z,679.4
2022-12-16T10:17:54.904Z,679.3
2022-12-16T10:18:58.246Z,679
2022-12-16T10:21:07.925Z,678.8
2022-12-16T10:22:10.297Z,678.9
2022-12-16T10:23:12.518Z,678.5
2022-12-16T10:24:14.717Z,678.3
2022-12-16T10:26:21.994Z,678.1
2022-12-16T10:27:24.318Z,678.3
2022-12-16T10:28:26.830Z,678.4
2022-12-16T10:29:29.414Z,678
2022-12-16T10:30:31.647Z,678.1
2022-12-16T10:31:34.594Z,677.7
2022-12-16T10:32:36.820Z,677.7
2022-12-16T10:33:39.487Z,678.1
2022-12-16T10:34:41.138Z,677.7
2022-12-16T10:35:43.087Z,677.4
2022-12-16T10:36:45.564Z,677.6
2022-12-16T10:37:48.058Z,677.8
2022-12-16T10:38:51.501Z,677.7
2022-12-16T10:39:57.281Z,677.7
2022-12-16T10:40:59.490Z,677.5
2022-12-16T10:42:02.019Z,677.6
2022-12-16T10:43:04.232Z,677.5
2022-12-16T10:44:06.625Z,677.4
2022-12-16T10:45:09.961Z,677.6
2022-12-16T10:46:12.980Z,677.7
2022-12-16T10:47:15.547Z,677.9
2022-12-16T10:48:18.062Z,677.6
2022-12-16T10:49:20.644Z,677.5
2022-12-16T10:50:22.892Z,677.4
2022-12-16T10:51:25.381Z,677.3
2022-12-16T10:52:27.873Z,677.2
2022-12-16T10:53:30.521Z,677.2
2022-12-16T10:54:33.145Z,677
2022-12-16T10:55:35.075Z,676.6
2022-12-16T10:56:37.293Z,677
2022-12-16T10:57:40.028Z,677.1
2022-12-16T10:58:41.962Z,677
2022-12-16T10:59:44.153Z,677
2022-12-16T11:00:46.417Z,676.9
2022-12-16T11:01:49.816Z,676.8
2022-12-16T11:02:53.661Z,676.5
2022-12-16T11:03:57.228Z,676.6
2022-12-16T11:04:59.768Z,676.1
2022-12-16T11:06:01.992Z,676
2022-12-16T11:07:04.494Z,676.1
2022-12-16T11:08:06.702Z,675.9
2022-12-16T11:09:08.655Z,676.3
2022-12-16T11:10:10.905Z,676.3
2022-12-16T11:11:13.410Z,675.9
2022-12-16T11:12:15.621Z,676.1
2022-12-16T11:13:18.161Z,675.6
2022-12-16T11:14:20.079Z,675.8
2022-12-16T11:16:27.877Z,675.6
2022-12-16T11:17:30.398Z,675.9
2022-12-16T11:18:32.633Z,675.9
2022-12-16T11:19:35.124Z,675.7
2022-12-16T11:20:37.652Z,675.7
2022-12-16T11:21:39.885Z,675.6
2022-12-16T11:22:41.810Z,675.7
2022-12-16T11:23:43.211Z,675.4
2022-12-16T11:24:45.125Z,675.2
2022-12-16T11:25:47.604Z,675.3
2022-12-16T11:26:50.097Z,675
2022-12-16T11:27:52.313Z,674.6
2022-12-16T11:28:55.863Z,674.5
2022-12-16T11:29:58.110Z,674.4
2022-12-16T11:31:01.195Z,674.6
2022-12-16T11:32:04.142Z,674.5
2022-12-16T11:33:06.667Z,675
2022-12-16T11:34:09.434Z,674.7
2022-12-16T11:35:12.049Z,675.2
2022-12-16T11:36:14.608Z,675.1
2022-12-16T11:38:21.790Z,674.9
2022-12-16T11:39:24.029Z,675
2022-12-16T11:40:26.240Z,674.8
2022-12-16T11:41:27.905Z,674.7
2022-12-16T11:42:30.397Z,675.2
2022-12-16T11:43:35.134Z,674.9
2022-12-16T11:44:37.833Z,674.8
2022-12-16T11:45:40.094Z,675.2
2022-12-16T11:46:42.789Z,675.3
2022-12-16T11:47:45.075Z,675.5
2022-12-16T11:48:47.284Z,675.1
2022-12-16T11:49:49.795Z,675.4
2022-12-16T11:50:55.959Z,675.1
2022-12-16T11:53:03.428Z,675.5
2022-12-16T11:54:06.009Z,675.6
2022-12-16T11:55:09.737Z,675.1
2022-12-16T11:57:16.678Z,674.6
2022-12-16T11:58:18.622Z,674.6
2022-12-16T11:59:21.097Z,674.6
2022-12-16T12:00:23.651Z,674.1
2022-12-16T12:01:26.347Z,673.8
2022-12-16T12:02:28.579Z,673.9
2022-12-16T12:03:33.675Z,673.8
2022-12-16T12:04:36.642Z,673.6
2022-12-16T12:05:38.913Z,673.6
2022-12-16T12:06:41.397Z,673.6
2022-12-16T12:08:48.460Z,673.5
2022-12-16T12:09:51.711Z,673.8
2022-12-16T12:12:00.513Z,673.6
2022-12-16T12:13:02.732Z,673.5
2022-12-16T12:14:04.966Z,673.6
2022-12-16T12:15:07.547Z,674.2
2022-12-16T12:16:10.522Z,673.8
2022-12-16T12:17:12.862Z,673.6
2022-12-16T12:18:15.359Z,673.6
2022-12-16T12:19:17.646Z,673.3
2022-12-16T12:20:20.131Z,672.6
2022-12-16T12:21:22.655Z,672.4
2022-12-16T12:22:24.841Z,672.3
2022-12-16T12:23:27.203Z,672.3
2022-12-16T12:24:29.400Z,672.2
2022-12-16T12:25:31.611Z,672.6
2022-12-16T12:26:33.549Z,673
2022-12-16T12:27:36.031Z,672.8
2022-12-16T12:28:38.509Z,672.6
2022-12-16T12:29:40.998Z,672.9
2022-12-16T12:30:42.911Z,672.6
2022-12-16T12:31:46.143Z,672.6
2022-12-16T12:32:48.269Z,672.6
2022-12-16T12:33:50.500Z,672.4
2022-12-16T12:34:56.510Z,672.5
2022-12-16T12:35:58.991Z,672.4
2022-12-16T12:37:01.481Z,672.5
2022-12-16T12:38:03.719Z,672.1
2022-12-16T12:39:06.221Z,671.6
2022-12-16T12:40:09.581Z,671.6
2022-12-16T12:41:11.239Z,671.7
2022-12-16T12:42:13.464Z,671.7
2022-12-16T12:43:15.401Z,671.3
2022-12-16T12:44:17.900Z,671.2
2022-12-16T12:45:19.878Z,671.3
2022-12-16T12:46:22.407Z,670.8
2022-12-16T12:47:24.680Z,671.1
2022-12-16T12:48:26.904Z,671.4
2022-12-16T12:49:28.844Z,671.2
2022-12-16T12:50:31.450Z,671.3
2022-12-16T12:51:33.118Z,671.2
2022-12-16T12:52:35.903Z,671.2
2022-12-16T12:53:37.963Z,671
2022-12-16T12:54:40.259Z,671.1
2022-12-16T12:55:42.751Z,671.1
2022-12-16T12:56:44.670Z,670.4
2022-12-16T12:57:46.594Z,670.8
2022-12-16T12:58:48.538Z,670.2
2022-12-16T13:00:58.837Z,670.4
2022-12-16T13:02:02.832Z,670
2022-12-16T13:03:06.480Z,669.7
2022-12-16T13:04:10.065Z,669.6
2022-12-16T13:05:12.303Z,669.4
2022-12-16T13:06:14.299Z,669.2
2022-12-16T13:07:16.983Z,669.2
2022-12-16T13:08:19.479Z,669.2
2022-12-16T13:09:21.673Z,669
2022-12-16T13:10:24.544Z,669.3
2022-12-16T13:12:31.238Z,669.1
2022-12-16T13:13:36.795Z,669.2
2022-12-16T13:14:39.524Z,669
2022-12-16T13:15:41.746Z,668.8
2022-12-16T13:16:44.007Z,668.8
2022-12-16T13:17:46.258Z,668.8
2022-12-16T13:18:48.679Z,669.2
2022-12-16T13:19:50.957Z,669.2
2022-12-16T13:20:54.142Z,669.2
2022-12-16T13:22:00.827Z,668.7
2022-12-16T13:23:03.042Z,668.8
2022-12-16T13:24:05.148Z,668.4
2022-12-16T13:25:07.106Z,668.2
2022-12-16T13:26:09.708Z,668
2022-12-16T13:27:12.192Z,667.9
2022-12-16T13:28:14.129Z,667.6
2022-12-16T13:29:16.344Z,667.5
2022-12-16T13:30:18.558Z,667.4
2022-12-16T13:32:25.481Z,667.3
2022-12-16T13:33:27.692Z,667.2
2022-12-16T13:34:29.962Z,667.3
2022-12-16T13:35:32.183Z,666.8
2022-12-16T13:36:34.411Z,666.7
2022-12-16T13:37:36.491Z,666.3
2022-12-16T13:38:38.707Z,666.1
2022-12-16T13:39:41.222Z,665.9
2022-12-16T13:40:43.708Z,666
2022-12-16T13:41:45.536Z,665.7
2022-12-16T13:42:47.184Z,665.8
2022-12-16T13:43:49.677Z,665.3
2022-12-16T13:44:51.873Z,665.2
2022-12-16T13:45:54.936Z,664.2
2022-12-16T13:46:57.508Z,664.6
2022-12-16T13:47:59.481Z,664.5
2022-12-16T13:49:01.697Z,664.2
2022-12-16T13:50:04.280Z,663.9
2022-12-16T13:51:06.771Z,664
2022-12-16T13:52:08.409Z,663.7
2022-12-16T13:53:10.673Z,663.4
2022-12-16T13:54:13.150Z,663.5
2022-12-16T13:56:23.405Z,663.2
2022-12-16T13:57:25.427Z,662.7
2022-12-16T13:58:27.971Z,662.8
2022-12-16T13:59:31.024Z,662.7
2022-12-16T14:01:39.484Z,662.9
2022-12-16T14:02:42.646Z,662.4
2022-12-16T14:03:45.413Z,662.5
2022-12-16T14:04:47.416Z,662.1
2022-12-16T14:05:49.695Z,662.6
2022-12-16T14:06:51.952Z,662.2
2022-12-16T14:07:54.151Z,662
2022-12-16T14:08:56.686Z,661.8
2022-12-16T14:09:58.930Z,662.1